Startpagina
METAR-TAF:

METAR-TAF

Vliegvelden :

Productieplatform

K13-a, Nederland

breedte: 53-13-04N, lengte: 3-13-13E, hoogte: 31 m

Actueel weer

Dit bericht is 18 minuten geleden gemaakt, om 15:55 UTC
Wind 16 kt uit het noordnoordoosten
Temperatuur 13°C
Vochtigheid 88%
Druk 1013 hPa

METAR: EHJR 201555Z AUTO 03016KT //// // ///////// 13/11 Q1013 RE// W13/H13

Tijdstip: 18:13 (16:13 UTC)


TAF: ontbreekt

Waarnemingen en weersverwachtingen van meer dan 4000 vliegvelden (METAR en TAF).

De beschikbare stations zijn de gele en rode punten op de kaart.

Ga met uw muis naar het station om de naam te zien.

Klik dan om waarnemingen en weersverwachtingen te zien.

kaart wijzigen: klik op de groene knoppen met een zwart kruis om in te zoomen, op de groene knop met een streepje om uit te zoomen of op de groene pijlen voor aangrenzende kaarten.


METAR-TAF: